sensor_id;sensor_type;location;lat;lon;timestamp;pressure;altitude;pressure_sealevel;temperature;humidity
65754;BME280;52488;47.502;18.940;2022-12-18T00:00:27;99355.41;;;-4.02;88.34
65754;BME280;52488;47.502;18.940;2022-12-18T00:01:33;99357.62;;;-4.00;88.35
65754;BME280;52488;47.502;18.940;2022-12-18T00:02:37;99355.59;;;-4.05;88.46
65754;BME280;52488;47.502;18.940;2022-12-18T00:03:41;99359.44;;;-3.97;88.52
65754;BME280;52488;47.502;18.940;2022-12-18T00:04:45;99358.09;;;-4.02;88.51
65754;BME280;52488;47.502;18.940;2022-12-18T00:05:51;99363.63;;;-4.05;88.63
65754;BME280;52488;47.502;18.940;2022-12-18T00:06:54;99363.63;;;-4.05;88.70
65754;BME280;52488;47.502;18.940;2022-12-18T00:07:58;99374.38;;;-4.05;88.77
65754;BME280;52488;47.502;18.940;2022-12-18T00:09:03;99373.91;;;-4.04;88.62
65754;BME280;52488;47.502;18.940;2022-12-18T00:10:07;99377.94;;;-4.08;88.63
65754;BME280;52488;47.502;18.940;2022-12-18T00:11:12;99378.09;;;-4.12;88.80
65754;BME280;52488;47.502;18.940;2022-12-18T00:12:15;99377.81;;;-4.14;88.89
65754;BME280;52488;47.502;18.940;2022-12-18T00:13:19;99387.06;;;-4.15;88.99
65754;BME280;52488;47.502;18.940;2022-12-18T00:14:22;99386.31;;;-4.15;89.13
65754;BME280;52488;47.502;18.940;2022-12-18T00:15:25;99387.19;;;-4.09;88.97
65754;BME280;52488;47.502;18.940;2022-12-18T00:16:29;99390.63;;;-4.09;88.93
65754;BME280;52488;47.502;18.940;2022-12-18T00:17:33;99386.59;;;-4.04;88.79
65754;BME280;52488;47.502;18.940;2022-12-18T00:18:36;99398.97;;;-4.07;88.59
65754;BME280;52488;47.502;18.940;2022-12-18T00:19:40;99398.69;;;-4.09;88.64
65754;BME280;52488;47.502;18.940;2022-12-18T00:20:43;99395.38;;;-4.04;88.43
65754;BME280;52488;47.502;18.940;2022-12-18T00:21:46;99403.72;;;-4.02;88.23
65754;BME280;52488;47.502;18.940;2022-12-18T00:22:48;99406.69;;;-3.90;87.98
65754;BME280;52488;47.502;18.940;2022-12-18T00:23:52;99404.00;;;-3.90;87.54
65754;BME280;52488;47.502;18.940;2022-12-18T00:24:55;99410.53;;;-3.82;87.13
65754;BME280;52488;47.502;18.940;2022-12-18T00:26:03;99411.09;;;-3.78;86.81
65754;BME280;52488;47.502;18.940;2022-12-18T00:27:06;99410.81;;;-3.80;86.61
65754;BME280;52488;47.502;18.940;2022-12-18T00:28:10;99412.63;;;-3.86;86.72
65754;BME280;52488;47.502;18.940;2022-12-18T00:29:13;99413.66;;;-3.75;86.45
65754;BME280;52488;47.502;18.940;2022-12-18T00:30:16;99420.22;;;-3.76;86.28
65754;BME280;52488;47.502;18.940;2022-12-18T00:31:23;99416.66;;;-3.82;86.44
65754;BME280;52488;47.502;18.940;2022-12-18T00:32:26;99418.28;;;-3.84;86.59
65754;BME280;52488;47.502;18.940;2022-12-18T00:33:29;99425.78;;;-3.88;86.64
65754;BME280;52488;47.502;18.940;2022-12-18T00:34:32;99415.94;;;-3.91;86.78
65754;BME280;52488;47.502;18.940;2022-12-18T00:35:35;99418.00;;;-3.86;86.75
65754;BME280;52488;47.502;18.940;2022-12-18T00:36:39;99425.78;;;-3.88;86.81
65754;BME280;52488;47.502;18.940;2022-12-18T00:37:43;99423.22;;;-3.83;86.61
65754;BME280;52488;47.502;18.940;2022-12-18T00:38:46;99420.22;;;-3.85;86.56
65754;BME280;52488;47.502;18.940;2022-12-18T00:39:50;99428.41;;;-3.79;86.33
65754;BME280;52488;47.502;18.940;2022-12-18T00:40:53;99423.97;;;-3.82;86.21
65754;BME280;52488;47.502;18.940;2022-12-18T00:41:56;99418.00;;;-3.86;86.21
65754;BME280;52488;47.502;18.940;2022-12-18T00:43:17;99428.00;;;-3.87;86.28
65754;BME280;52488;47.502;18.940;2022-12-18T00:44:20;99426.53;;;-3.88;86.43
65754;BME280;52488;47.502;18.940;2022-12-18T00:45:24;99430.37;;;-3.89;86.45
65754;BME280;52488;47.502;18.940;2022-12-18T00:46:28;99424.56;;;-3.87;86.36
65754;BME280;52488;47.502;18.940;2022-12-18T00:47:31;99433.53;;;-3.90;86.37
65754;BME280;52488;47.502;18.940;2022-12-18T00:48:34;99431.28;;;-3.92;86.36
65754;BME280;52488;47.502;18.940;2022-12-18T00:49:37;99432.97;;;-4.04;86.70
65754;BME280;52488;47.502;18.940;2022-12-18T00:50:40;99428.94;;;-4.08;86.97
65754;BME280;52488;47.502;18.940;2022-12-18T00:51:43;99426.53;;;-4.06;87.12
65754;BME280;52488;47.502;18.940;2022-12-18T00:52:46;99431.63;;;-4.08;87.18
65754;BME280;52488;47.502;18.940;2022-12-18T00:53:49;99424.91;;;-4.04;87.15
65754;BME280;52488;47.502;18.940;2022-12-18T00:54:52;99432.94;;;-3.94;86.88
65754;BME280;52488;47.502;18.940;2022-12-18T00:55:55;99432.34;;;-3.99;86.66
65754;BME280;52488;47.502;18.940;2022-12-18T00:56:58;99435.66;;;-4.04;86.76
65754;BME280;52488;47.502;18.940;2022-12-18T00:58:02;99441.03;;;-4.13;87.09
65754;BME280;52488;47.502;18.940;2022-12-18T00:59:04;99440.41;;;-4.17;87.22
65754;BME280;52488;47.502;18.940;2022-12-18T01:00:11;99440.72;;;-4.15;87.06
65754;BME280;52488;47.502;18.940;2022-12-18T01:01:16;99441.66;;;-4.27;86.98
65754;BME280;52488;47.502;18.940;2022-12-18T01:02:19;99441.62;;;-4.36;87.18
65754;BME280;52488;47.502;18.940;2022-12-18T01:03:23;99445.50;;;-4.46;87.43
65754;BME280;52488;47.502;18.940;2022-12-18T01:04:26;99445.81;;;-4.54;87.99
65754;BME280;52488;47.502;18.940;2022-12-18T01:05:29;99449.69;;;-4.55;88.23
65754;BME280;52488;47.502;18.940;2022-12-18T01:06:32;99448.34;;;-4.59;88.24
65754;BME280;52488;47.502;18.940;2022-12-18T01:07:35;99451.16;;;-4.63;88.26
65754;BME280;52488;47.502;18.940;2022-12-18T01:08:38;99449.53;;;-4.69;88.25
65754;BME280;52488;47.502;18.940;2022-12-18T01:09:42;99452.06;;;-4.75;88.32
65754;BME280;52488;47.502;18.940;2022-12-18T01:10:45;99461.41;;;-4.80;88.52
65754;BME280;52488;47.502;18.940;2022-12-18T01:11:48;99458.59;;;-4.85;88.80
65754;BME280;52488;47.502;18.940;2022-12-18T01:12:51;99455.59;;;-4.87;89.22
65754;BME280;52488;47.502;18.940;2022-12-18T01:13:54;99451.44;;;-4.88;89.57
65754;BME280;52488;47.502;18.940;2022-12-18T01:14:57;99454.88;;;-4.88;89.63
65754;BME280;52488;47.502;18.940;2022-12-18T01:16:00;99459.63;;;-4.92;89.68
65754;BME280;52488;47.502;18.940;2022-12-18T01:17:04;99457.81;;;-4.95;89.86
65754;BME280;52488;47.502;18.940;2022-12-18T01:18:07;99459.44;;;-4.97;90.05
65754;BME280;52488;47.502;18.940;2022-12-18T01:19:10;99459.91;;;-4.99;90.15
65754;BME280;52488;47.502;18.940;2022-12-18T01:20:13;99459.44;;;-4.97;90.09
65754;BME280;52488;47.502;18.940;2022-12-18T01:21:16;99461.53;;;-5.01;90.06
65754;BME280;52488;47.502;18.940;2022-12-18T01:22:19;99459.75;;;-5.05;90.07
65754;BME280;52488;47.502;18.940;2022-12-18T01:23:22;99464.38;;;-4.96;90.00
65754;BME280;52488;47.502;18.940;2022-12-18T01:24:25;99462.00;;;-4.94;89.74
65754;BME280;52488;47.502;18.940;2022-12-18T01:25:28;99466.31;;;-4.96;89.73
65754;BME280;52488;47.502;18.940;2022-12-18T01:26:32;99463.91;;;-4.94;89.69
65754;BME280;52488;47.502;18.940;2022-12-18T01:27:35;99464.53;;;-4.99;89.71
65754;BME280;52488;47.502;18.940;2022-12-18T01:28:38;99463.00;;;-5.00;89.79
65754;BME280;52488;47.502;18.940;2022-12-18T01:29:42;99466.00;;;-4.98;89.80
65754;BME280;52488;47.502;18.940;2022-12-18T01:30:45;99467.78;;;-4.95;89.64
65754;BME280;52488;47.502;18.940;2022-12-18T01:31:48;99468.19;;;-5.06;89.73
65754;BME280;52488;47.502;18.940;2022-12-18T01:32:51;99463.88;;;-5.13;90.04
65754;BME280;52488;47.502;18.940;2022-12-18T01:33:55;99470.88;;;-5.15;90.29
65754;BME280;52488;47.502;18.940;2022-12-18T01:34:58;99464.44;;;-5.18;90.32
65754;BME280;52488;47.502;18.940;2022-12-18T01:36:01;99460.28;;;-5.19;90.37
65754;BME280;52488;47.502;18.940;2022-12-18T01:37:05;99461.19;;;-5.22;90.50
65754;BME280;52488;47.502;18.940;2022-12-18T01:38:08;99465.78;;;-5.22;90.55
65754;BME280;52488;47.502;18.940;2022-12-18T01:39:13;99468.59;;;-5.26;90.60
65754;BME280;52488;47.502;18.940;2022-12-18T01:40:16;99471.28;;;-5.26;90.64
65754;BME280;52488;47.502;18.940;2022-12-18T01:41:23;99467.69;;;-5.23;90.58
65754;BME280;52488;47.502;18.940;2022-12-18T01:42:27;99464.44;;;-5.27;90.58
65754;BME280;52488;47.502;18.940;2022-12-18T01:43:49;99461.44;;;-5.29;90.53
65754;BME280;52488;47.502;18.940;2022-12-18T01:46:14;99477.22;;;-5.31;90.57
65754;BME280;52488;47.502;18.940;2022-12-18T01:47:28;99468.09;;;-5.34;90.75
65754;BME280;52488;47.502;18.940;2022-12-18T01:48:33;99473.91;;;-5.35;90.87
65754;BME280;52488;47.502;18.940;2022-12-18T01:49:36;99478.97;;;-5.37;91.03
65754;BME280;52488;47.502;18.940;2022-12-18T01:50:41;99480.00;;;-5.35;90.99
65754;BME280;52488;47.502;18.940;2022-12-18T01:51:45;99482.13;;;-5.29;91.05
65754;BME280;52488;47.502;18.940;2022-12-18T01:52:54;99479.88;;;-5.31;91.13
65754;BME280;52488;47.502;18.940;2022-12-18T01:53:59;99483.00;;;-5.33;91.33
65754;BME280;52488;47.502;18.940;2022-12-18T01:55:04;99475.72;;;-5.32;91.54
65754;BME280;52488;47.502;18.940;2022-12-18T01:56:08;99472.91;;;-5.28;91.65
65754;BME280;52488;47.502;18.940;2022-12-18T01:57:14;99480.34;;;-5.23;91.60
65754;BME280;52488;47.502;18.940;2022-12-18T01:58:19;99477.25;;;-5.22;91.48
65754;BME280;52488;47.502;18.940;2022-12-18T01:59:22;99478.88;;;-5.24;91.37
65754;BME280;52488;47.502;18.940;2022-12-18T02:00:26;99479.31;;;-5.26;91.34
65754;BME280;52488;47.502;18.940;2022-12-18T02:01:31;99485.59;;;-5.20;91.41
65754;BME280;52488;47.502;18.940;2022-12-18T02:02:35;99484.44;;;-5.10;91.33
65754;BME280;52488;47.502;18.940;2022-12-18T02:03:42;99481.34;;;-4.99;91.29
65754;BME280;52488;47.502;18.940;2022-12-18T02:04:45;99481.19;;;-4.95;91.20
65754;BME280;52488;47.502;18.940;2022-12-18T02:07:21;99483.41;;;-5.03;91.36
65754;BME280;52488;47.502;18.940;2022-12-18T02:10:31;99496.34;;;-5.01;91.49
65754;BME280;52488;47.502;18.940;2022-12-18T02:13:02;99505.00;;;-4.97;91.18
65754;BME280;52488;47.502;18.940;2022-12-18T02:14:18;99499.50;;;-5.03;90.93
65754;BME280;52488;47.502;18.940;2022-12-18T02:17:01;99499.78;;;-5.10;90.64
65754;BME280;52488;47.502;18.940;2022-12-18T02:18:19;99497.34;;;-5.17;90.89
65754;BME280;52488;47.502;18.940;2022-12-18T02:19:43;99504.78;;;-5.21;91.07
65754;BME280;52488;47.502;18.940;2022-12-18T02:21:26;99506.13;;;-5.17;91.22
65754;BME280;52488;47.502;18.940;2022-12-18T02:24:23;99511.81;;;-5.15;91.42
65754;BME280;52488;47.502;18.940;2022-12-18T02:27:09;99510.00;;;-5.18;91.76
65754;BME280;52488;47.502;18.940;2022-12-18T02:28:15;99515.22;;;-5.14;91.50
65754;BME280;52488;47.502;18.940;2022-12-18T02:29:26;99517.47;;;-5.13;91.19
65754;BME280;52488;47.502;18.940;2022-12-18T02:30:33;99521.34;;;-5.14;90.90
65754;BME280;52488;47.502;18.940;2022-12-18T02:31:43;99518.03;;;-5.18;90.63
65754;BME280;52488;47.502;18.940;2022-12-18T02:32:50;99519.50;;;-5.26;90.63
65754;BME280;52488;47.502;18.940;2022-12-18T02:33:56;99525.09;;;-5.33;90.71
65754;BME280;52488;47.502;18.940;2022-12-18T02:35:04;99524.50;;;-5.37;90.99
65754;BME280;52488;47.502;18.940;2022-12-18T02:36:09;99519.56;;;-5.39;91.19
65754;BME280;52488;47.502;18.940;2022-12-18T02:37:17;99523.88;;;-5.41;91.28
65754;BME280;52488;47.502;18.940;2022-12-18T02:38:23;99527.00;;;-5.43;91.38
65754;BME280;52488;47.502;18.940;2022-12-18T02:39:29;99525.94;;;-5.45;91.37
65754;BME280;52488;47.502;18.940;2022-12-18T02:40:34;99525.62;;;-5.47;91.30
65754;BME280;52488;47.502;18.940;2022-12-18T02:41:38;99536.34;;;-5.47;91.16
65754;BME280;52488;47.502;18.940;2022-12-18T02:42:42;99538.84;;;-5.53;91.14
65754;BME280;52488;47.502;18.940;2022-12-18T02:43:49;99531.25;;;-5.54;91.24
65754;BME280;52488;47.502;18.940;2022-12-18T02:44:52;99532.12;;;-5.58;91.37
65754;BME280;52488;47.502;18.940;2022-12-18T02:45:59;99533.31;;;-5.59;91.41
65754;BME280;52488;47.502;18.940;2022-12-18T02:47:04;99528.41;;;-5.60;91.37
65754;BME280;52488;47.502;18.940;2022-12-18T02:48:07;99535.69;;;-5.61;91.28
65754;BME280;52488;47.502;18.940;2022-12-18T02:49:35;99537.00;;;-5.65;91.28
65754;BME280;52488;47.502;18.940;2022-12-18T02:50:45;99532.06;;;-5.67;91.34
65754;BME280;52488;47.502;18.940;2022-12-18T02:52:01;99540.97;;;-5.70;91.43
65754;BME280;52488;47.502;18.940;2022-12-18T02:53:36;99538.41;;;-5.73;91.51
65754;BME280;52488;47.502;18.940;2022-12-18T02:54:54;99530.94;;;-5.78;91.58
65754;BME280;52488;47.502;18.940;2022-12-18T02:56:03;99533.22;;;-5.77;91.61
65754;BME280;52488;47.502;18.940;2022-12-18T02:57:56;99537.03;;;-5.78;91.67
65754;BME280;52488;47.502;18.940;2022-12-18T02:59:02;99533.94;;;-5.76;91.78
65754;BME280;52488;47.502;18.940;2022-12-18T03:00:22;99542.09;;;-5.80;91.77
65754;BME280;52488;47.502;18.940;2022-12-18T03:02:47;99549.44;;;-5.71;92.08
65754;BME280;52488;47.502;18.940;2022-12-18T03:03:52;99547.81;;;-5.69;92.27
65754;BME280;52488;47.502;18.940;2022-12-18T03:05:13;99548.44;;;-5.65;92.42
65754;BME280;52488;47.502;18.940;2022-12-18T03:06:28;99554.84;;;-5.62;92.54
65754;BME280;52488;47.502;18.940;2022-12-18T03:07:56;99553.81;;;-5.65;92.76
65754;BME280;52488;47.502;18.940;2022-12-18T03:09:14;99551.44;;;-5.63;92.76
65754;BME280;52488;47.502;18.940;2022-12-18T03:10:24;99556.78;;;-5.63;92.72
65754;BME280;52488;47.502;18.940;2022-12-18T03:11:31;99552.16;;;-5.62;92.74
65754;BME280;52488;47.502;18.940;2022-12-18T03:13:13;99555.59;;;-5.62;92.68
65754;BME280;52488;47.502;18.940;2022-12-18T03:14:20;99555.47;;;-5.58;92.57
65754;BME280;52488;47.502;18.940;2022-12-18T03:15:28;99563.94;;;-5.60;92.45
65754;BME280;52488;47.502;18.940;2022-12-18T03:16:34;99559.78;;;-5.61;92.32
65754;BME280;52488;47.502;18.940;2022-12-18T03:17:41;99563.75;;;-5.65;92.18
65754;BME280;52488;47.502;18.940;2022-12-18T03:18:51;99566.56;;;-5.69;92.13
65754;BME280;52488;47.502;18.940;2022-12-18T03:19:59;99560.75;;;-5.67;92.09
65754;BME280;52488;47.502;18.940;2022-12-18T03:21:06;99565.81;;;-5.69;91.97
65754;BME280;52488;47.502;18.940;2022-12-18T03:22:13;99564.44;;;-5.74;91.99
65754;BME280;52488;47.502;18.940;2022-12-18T03:23:23;99562.38;;;-5.70;92.08
65754;BME280;52488;47.502;18.940;2022-12-18T03:24:29;99561.84;;;-5.65;91.94
65754;BME280;52488;47.502;18.940;2022-12-18T03:25:39;99563.12;;;-5.69;91.82
65754;BME280;52488;47.502;18.940;2022-12-18T03:26:46;99567.84;;;-5.73;91.87
65754;BME280;52488;47.502;18.940;2022-12-18T03:27:53;99561.75;;;-5.74;91.98
65754;BME280;52488;47.502;18.940;2022-12-18T03:30:43;99569.91;;;-5.77;92.24
65754;BME280;52488;47.502;18.940;2022-12-18T03:31:54;99575.69;;;-5.79;92.20
65754;BME280;52488;47.502;18.940;2022-12-18T03:33:10;99575.88;;;-5.73;92.21
65754;BME280;52488;47.502;18.940;2022-12-18T03:34:21;99586.78;;;-5.68;91.94
65754;BME280;52488;47.502;18.940;2022-12-18T03:35:30;99585.28;;;-5.69;91.76
65754;BME280;52488;47.502;18.940;2022-12-18T03:36:35;99587.16;;;-5.78;91.89
65754;BME280;52488;47.502;18.940;2022-12-18T03:37:38;99586.09;;;-5.81;92.13
65754;BME280;52488;47.502;18.940;2022-12-18T03:38:42;99597.25;;;-5.82;92.32
65754;BME280;52488;47.502;18.940;2022-12-18T03:39:45;99596.47;;;-5.83;92.62
65754;BME280;52488;47.502;18.940;2022-12-18T03:41:22;99595.72;;;-5.84;92.83
65754;BME280;52488;47.502;18.940;2022-12-18T03:42:48;99600.22;;;-5.80;92.91
65754;BME280;52488;47.502;18.940;2022-12-18T03:44:17;99602.91;;;-5.80;92.94
65754;BME280;52488;47.502;18.940;2022-12-18T03:45:32;99596.06;;;-5.81;93.15
65754;BME280;52488;47.502;18.940;2022-12-18T03:47:02;99593.69;;;-5.79;93.34
65754;BME280;52488;47.502;18.940;2022-12-18T03:48:30;99591.75;;;-5.79;93.52
65754;BME280;52488;47.502;18.940;2022-12-18T03:49:40;99602.78;;;-5.77;93.68
65754;BME280;52488;47.502;18.940;2022-12-18T03:51:02;99604.59;;;-5.74;93.66
65754;BME280;52488;47.502;18.940;2022-12-18T03:52:20;99604.16;;;-5.72;93.44
65754;BME280;52488;47.502;18.940;2022-12-18T03:53:47;99607.25;;;-5.74;93.11
65754;BME280;52488;47.502;18.940;2022-12-18T03:54:52;99600.13;;;-5.77;92.84
65754;BME280;52488;47.502;18.940;2022-12-18T03:55:59;99606.63;;;-5.78;92.67
65754;BME280;52488;47.502;18.940;2022-12-18T03:57:13;99601.84;;;-5.83;92.55
65754;BME280;52488;47.502;18.940;2022-12-18T03:58:21;99603.56;;;-5.89;92.59
65754;BME280;52488;47.502;18.940;2022-12-18T03:59:27;99599.41;;;-5.90;92.67
65754;BME280;52488;47.502;18.940;2022-12-18T04:00:31;99604.16;;;-5.94;92.75
65754;BME280;52488;47.502;18.940;2022-12-18T04:01:39;99613.06;;;-5.97;92.94
65754;BME280;52488;47.502;18.940;2022-12-18T04:02:51;99608.00;;;-5.95;93.14
65754;BME280;52488;47.502;18.940;2022-12-18T04:03:55;99619.34;;;-5.91;93.22
65754;BME280;52488;47.502;18.940;2022-12-18T04:05:03;99612.03;;;-5.91;93.30
65754;BME280;52488;47.502;18.940;2022-12-18T04:06:07;99618.13;;;-5.90;93.46
65754;BME280;52488;47.502;18.940;2022-12-18T04:07:12;99618.03;;;-5.87;93.45
65754;BME280;52488;47.502;18.940;2022-12-18T04:08:16;99620.06;;;-5.91;93.27
65754;BME280;52488;47.502;18.940;2022-12-18T04:09:20;99622.88;;;-5.94;93.25
65754;BME280;52488;47.502;18.940;2022-12-18T04:10:24;99616.03;;;-5.95;93.25
65754;BME280;52488;47.502;18.940;2022-12-18T04:11:27;99620.53;;;-5.92;93.23
65754;BME280;52488;47.502;18.940;2022-12-18T04:12:30;99627.06;;;-5.93;93.16
65754;BME280;52488;47.502;18.940;2022-12-18T04:13:35;99621.28;;;-5.92;93.11
65754;BME280;52488;47.502;18.940;2022-12-18T04:14:39;99622.56;;;-5.96;93.06
65754;BME280;52488;47.502;18.940;2022-12-18T04:15:42;99624.59;;;-6.00;93.12
65754;BME280;52488;47.502;18.940;2022-12-18T04:16:45;99614.03;;;-6.04;93.14
65754;BME280;52488;47.502;18.940;2022-12-18T04:17:49;99617.12;;;-6.05;93.15
65754;BME280;52488;47.502;18.940;2022-12-18T04:18:53;99617.12;;;-6.05;93.21
65754;BME280;52488;47.502;18.940;2022-12-18T04:19:56;99618.66;;;-6.04;93.28
65754;BME280;52488;47.502;18.940;2022-12-18T04:20:59;99615.62;;;-6.06;93.43
65754;BME280;52488;47.502;18.940;2022-12-18T04:22:02;99626.22;;;-6.03;93.56
65754;BME280;52488;47.502;18.940;2022-12-18T04:23:05;99631.28;;;-6.05;93.58
65754;BME280;52488;47.502;18.940;2022-12-18T04:24:08;99629.00;;;-6.06;93.52
65754;BME280;52488;47.502;18.940;2022-12-18T04:25:12;99618.00;;;-6.08;93.41
65754;BME280;52488;47.502;18.940;2022-12-18T04:26:15;99631.81;;;-6.10;93.37
65754;BME280;52488;47.502;18.940;2022-12-18T04:27:19;99631.06;;;-6.10;93.42
65754;BME280;52488;47.502;18.940;2022-12-18T04:28:22;99627.22;;;-6.09;93.51
65754;BME280;52488;47.502;18.940;2022-12-18T04:29:25;99630.63;;;-6.09;93.56
65754;BME280;52488;47.502;18.940;2022-12-18T04:30:28;99627.63;;;-6.11;93.60
65754;BME280;52488;47.502;18.940;2022-12-18T04:31:31;99621.22;;;-6.14;93.61
65754;BME280;52488;47.502;18.940;2022-12-18T04:32:34;99626.56;;;-6.14;93.69
65754;BME280;52488;47.502;18.940;2022-12-18T04:33:38;99630.00;;;-6.13;93.74
65754;BME280;52488;47.502;18.940;2022-12-18T04:34:41;99636.44;;;-6.10;93.71
65754;BME280;52488;47.502;18.940;2022-12-18T04:35:44;99644.88;;;-6.12;93.70
65754;BME280;52488;47.502;18.940;2022-12-18T04:36:47;99631.19;;;-6.14;93.72
65754;BME280;52488;47.502;18.940;2022-12-18T04:37:50;99638.03;;;-6.13;93.75
65754;BME280;52488;47.502;18.940;2022-12-18T04:38:53;99641.00;;;-6.11;93.75
65754;BME280;52488;47.502;18.940;2022-12-18T04:39:56;99639.50;;;-6.12;93.68
65754;BME280;52488;47.502;18.940;2022-12-18T04:40:59;99643.69;;;-6.11;93.70
65754;BME280;52488;47.502;18.940;2022-12-18T04:42:02;99639.41;;;-6.08;93.77
65754;BME280;52488;47.502;18.940;2022-12-18T04:43:05;99644.66;;;-6.05;93.84
65754;BME280;52488;47.502;18.940;2022-12-18T04:44:08;99639.31;;;-6.05;93.95
65754;BME280;52488;47.502;18.940;2022-12-18T04:45:11;99643.78;;;-6.02;93.78
65754;BME280;52488;47.502;18.940;2022-12-18T04:46:14;99654.91;;;-6.03;93.49
65754;BME280;52488;47.502;18.940;2022-12-18T04:47:17;99651.91;;;-6.05;93.16
65754;BME280;52488;47.502;18.940;2022-12-18T04:48:20;99654.28;;;-6.07;92.89
65754;BME280;52488;47.502;18.940;2022-12-18T04:49:24;99656.00;;;-6.14;92.70
65754;BME280;52488;47.502;18.940;2022-12-18T04:50:27;99659.22;;;-6.19;92.72
65754;BME280;52488;47.502;18.940;2022-12-18T04:51:30;99654.41;;;-6.24;92.93
65754;BME280;52488;47.502;18.940;2022-12-18T04:52:33;99660.94;;;-6.25;93.11
65754;BME280;52488;47.502;18.940;2022-12-18T04:53:36;99658.25;;;-6.25;93.24
65754;BME280;52488;47.502;18.940;2022-12-18T04:54:40;99655.69;;;-6.28;93.39
65754;BME280;52488;47.502;18.940;2022-12-18T04:55:43;99665.22;;;-6.27;93.55
65754;BME280;52488;47.502;18.940;2022-12-18T04:56:46;99662.97;;;-6.29;93.57
65754;BME280;52488;47.502;18.940;2022-12-18T04:57:49;99669.19;;;-6.32;93.59
65754;BME280;52488;47.502;18.940;2022-12-18T04:58:52;99664.47;;;-6.28;93.65
65754;BME280;52488;47.502;18.940;2022-12-18T04:59:55;99674.31;;;-6.25;93.64
65754;BME280;52488;47.502;18.940;2022-12-18T05:00:58;99673.56;;;-6.25;93.72
65754;BME280;52488;47.502;18.940;2022-12-18T05:02:01;99673.56;;;-6.25;93.88
65754;BME280;52488;47.502;18.940;2022-12-18T05:03:05;99670.47;;;-6.24;93.96
65754;BME280;52488;47.502;18.940;2022-12-18T05:04:08;99672.59;;;-6.19;93.86
65754;BME280;52488;47.502;18.940;2022-12-18T05:05:11;99679.13;;;-6.20;93.59
65754;BME280;52488;47.502;18.940;2022-12-18T05:06:14;99676.88;;;-6.21;93.38
65754;BME280;52488;47.502;18.940;2022-12-18T05:07:17;99675.06;;;-6.24;93.17
65754;BME280;52488;47.502;18.940;2022-12-18T05:08:20;99676.34;;;-6.29;93.13
65754;BME280;52488;47.502;18.940;2022-12-18T05:09:24;99679.16;;;-6.32;93.20
65754;BME280;52488;47.502;18.940;2022-12-18T05:10:27;99674.19;;;-6.34;93.24
65754;BME280;52488;47.502;18.940;2022-12-18T05:11:37;99683.84;;;-6.36;93.30
65754;BME280;52488;47.502;18.940;2022-12-18T05:12:40;99672.06;;;-6.39;93.29
65754;BME280;52488;47.502;18.940;2022-12-18T05:14:02;99679.78;;;-6.41;93.30
65754;BME280;52488;47.502;18.940;2022-12-18T05:15:06;99680.22;;;-6.43;93.31
65754;BME280;52488;47.502;18.940;2022-12-18T05:16:10;99673.59;;;-6.38;93.25
65754;BME280;52488;47.502;18.940;2022-12-18T05:17:13;99680.72;;;-6.35;93.08
65754;BME280;52488;47.502;18.940;2022-12-18T05:18:16;99676.66;;;-6.40;93.08
65754;BME280;52488;47.502;18.940;2022-12-18T05:19:19;99675.91;;;-6.40;93.24
65754;BME280;52488;47.502;18.940;2022-12-18T05:20:23;99676.34;;;-6.42;93.37
65754;BME280;52488;47.502;18.940;2022-12-18T05:21:26;99683.41;;;-6.35;93.43
65754;BME280;52488;47.502;18.940;2022-12-18T05:22:29;99686.09;;;-6.35;93.35
65754;BME280;52488;47.502;18.940;2022-12-18T05:23:35;99684.50;;;-6.32;93.37
65754;BME280;52488;47.502;18.940;2022-12-18T05:24:39;99683.72;;;-6.33;93.48
65754;BME280;52488;47.502;18.940;2022-12-18T05:25:42;99686.09;;;-6.35;93.61
65754;BME280;52488;47.502;18.940;2022-12-18T05:26:51;99684.59;;;-6.36;93.75
65754;BME280;52488;47.502;18.940;2022-12-18T05:27:54;99684.91;;;-6.34;93.87
65754;BME280;52488;47.502;18.940;2022-12-18T05:28:58;99688.75;;;-6.35;93.97
65754;BME280;52488;47.502;18.940;2022-12-18T05:30:01;99691.75;;;-6.33;94.05
65754;BME280;52488;47.502;18.940;2022-12-18T05:31:04;99691.75;;;-6.33;93.99
65754;BME280;52488;47.502;18.940;2022-12-18T05:32:07;99693.25;;;-6.32;93.93
65754;BME280;52488;47.502;18.940;2022-12-18T05:33:10;99690.91;;;-6.30;93.92
65754;BME280;52488;47.502;18.940;2022-12-18T05:34:13;99692.50;;;-6.32;93.97
65754;BME280;52488;47.502;18.940;2022-12-18T05:35:17;99691.00;;;-6.33;94.07
65754;BME280;52488;47.502;18.940;2022-12-18T05:36:20;99692.38;;;-6.29;94.15
65754;BME280;52488;47.502;18.940;2022-12-18T05:37:23;99697.31;;;-6.27;94.22
65754;BME280;52488;47.502;18.940;2022-12-18T05:38:26;99690.34;;;-6.25;94.22
65754;BME280;52488;47.502;18.940;2022-12-18T05:39:29;99699.44;;;-6.22;94.13
65754;BME280;52488;47.502;18.940;2022-12-18T05:40:33;99703.28;;;-6.23;94.09
65754;BME280;52488;47.502;18.940;2022-12-18T05:41:36;99701.38;;;-6.23;94.13
65754;BME280;52488;47.502;18.940;2022-12-18T05:42:39;99701.56;;;-6.17;94.11
65754;BME280;52488;47.502;18.940;2022-12-18T05:43:42;99702.53;;;-6.11;93.83
65754;BME280;52488;47.502;18.940;2022-12-18T05:44:46;99710.69;;;-6.15;93.66
65754;BME280;52488;47.502;18.940;2022-12-18T05:45:49;99703.72;;;-6.12;93.61
65754;BME280;52488;47.502;18.940;2022-12-18T05:46:52;99705.00;;;-6.17;93.59
65754;BME280;52488;47.502;18.940;2022-12-18T05:47:56;99714.66;;;-6.19;93.68
65754;BME280;52488;47.502;18.940;2022-12-18T05:49:00;99711.13;;;-6.16;93.72
65754;BME280;52488;47.502;18.940;2022-12-18T05:50:04;99709.19;;;-6.16;93.64
65754;BME280;52488;47.502;18.940;2022-12-18T05:51:09;99712.19;;;-6.14;93.54
65754;BME280;52488;47.502;18.940;2022-12-18T05:52:13;99714.22;;;-6.18;93.46
65754;BME280;52488;47.502;18.940;2022-12-18T05:53:18;99712.41;;;-6.21;93.48
65754;BME280;52488;47.502;18.940;2022-12-18T05:54:21;99709.53;;;-6.26;93.50
65754;BME280;52488;47.502;18.940;2022-12-18T05:55:24;99712.50;;;-6.24;93.56
65754;BME280;52488;47.502;18.940;2022-12-18T05:56:28;99712.19;;;-6.26;93.63
65754;BME280;52488;47.502;18.940;2022-12-18T05:57:31;99713.16;;;-6.20;93.63
65754;BME280;52488;47.502;18.940;2022-12-18T05:58:35;99712.72;;;-6.19;93.52
65754;BME280;52488;47.502;18.940;2022-12-18T05:59:38;99714.75;;;-6.23;93.50
65754;BME280;52488;47.502;18.940;2022-12-18T06:00:44;99712.50;;;-6.24;93.54